createdAt,value
2022-11-19T00:01:58.462Z,101873.25
2022-11-19T00:04:26.284Z,101903.47
2022-11-19T00:06:54.178Z,101895.59
2022-11-19T00:09:22.111Z,101879.97
2022-11-19T00:12:06.387Z,101890.16
2022-11-19T00:14:35.766Z,101835.97
2022-11-19T00:17:03.557Z,101893.66
2022-11-19T00:19:31.341Z,101883.19
2022-11-19T00:21:59.244Z,101837.03
2022-11-19T00:24:29.093Z,101868.63
2022-11-19T00:26:57.133Z,101885.41
2022-11-19T00:29:25.112Z,101885.53
2022-11-19T00:31:54.304Z,101878.56
2022-11-19T00:34:22.098Z,101874.44
2022-11-19T00:36:50.924Z,101877.53
2022-11-19T00:39:19.411Z,101855.84
2022-11-19T00:41:47.412Z,101875.47
2022-11-19T00:44:15.659Z,101806.84
2022-11-19T00:46:43.472Z,101874.56
2022-11-19T00:49:12.647Z,101865.91
2022-11-19T00:51:40.600Z,101859.34
2022-11-19T00:54:08.417Z,101804.78
2022-11-19T00:56:36.231Z,101869.28
2022-11-19T00:59:04.658Z,101862.31
2022-11-19T01:01:32.587Z,101730.38
2022-11-19T01:04:00.549Z,101819.34
2022-11-19T01:06:29.918Z,101873.41
2022-11-19T01:08:58.222Z,101863.72
2022-11-19T01:11:28.805Z,101866.44
2022-11-19T01:13:57.360Z,101865.53
2022-11-19T01:16:27.256Z,101870.56
2022-11-19T01:18:55.389Z,101861.91
2022-11-19T01:21:27.680Z,101862.81
2022-11-19T01:23:57.819Z,101870.44
2022-11-19T01:26:26.810Z,101870.56
2022-11-19T01:28:55.175Z,101861.16
2022-11-19T01:31:25.643Z,101799.09
2022-11-19T01:33:54.318Z,101872.13
2022-11-19T01:36:24.259Z,101868.75
2022-11-19T01:38:52.303Z,101854.31
2022-11-19T01:41:23.402Z,101859.22
2022-11-19T01:43:52.912Z,101859.97
2022-11-19T01:46:22.415Z,101860.75
2022-11-19T01:48:55.107Z,101863.22
2022-11-19T01:51:26.139Z,101858.06
2022-11-19T01:53:58.631Z,101836.25
2022-11-19T01:56:29.356Z,101827.09
2022-11-19T01:59:01.447Z,101858.69
2022-11-19T02:01:30.321Z,101856.13
2022-11-19T02:04:00.968Z,101858.56
2022-11-19T02:06:29.760Z,101875.84
2022-11-19T02:08:58.118Z,101875.09
2022-11-19T02:11:47.191Z,101882.06
2022-11-19T02:14:38.205Z,101881.03
2022-11-19T02:17:17.413Z,101879.34
2022-11-19T02:20:25.824Z,101857.94
2022-11-19T02:23:47.352Z,101856.88
2022-11-19T02:26:53.908Z,101846.31
2022-11-19T02:29:50.803Z,101823.84
2022-11-19T02:32:28.476Z,101820.00
2022-11-19T02:34:59.622Z,101825.41
2022-11-19T02:37:30.940Z,101813.41
2022-11-19T02:40:06.604Z,101816.00
2022-11-19T02:42:38.797Z,101825.41
2022-11-19T02:45:11.550Z,101798.84
2022-11-19T02:47:43.000Z,101815.72
2022-11-19T02:50:16.254Z,101806.19
2022-11-19T02:52:47.996Z,101748.56
2022-11-19T02:55:18.602Z,101784.16
2022-11-19T02:57:51.602Z,101835.47
2022-11-19T03:00:37.886Z,101834.69
2022-11-19T03:03:29.544Z,101838.19
2022-11-19T03:06:03.307Z,101810.19
2022-11-19T03:08:31.199Z,101826.84
2022-11-19T03:11:08.752Z,101824.25
2022-11-19T03:14:06.483Z,101762.59
2022-11-19T03:16:44.048Z,101821.53
2022-11-19T03:19:25.723Z,101820.78
2022-11-19T03:21:57.832Z,101812.13
2022-11-19T03:24:31.978Z,101816.50
2022-11-19T03:27:05.169Z,101823.22
2022-11-19T03:29:40.043Z,101825.03
2022-11-19T03:32:14.291Z,101822.56
2022-11-19T03:34:46.912Z,101827.59
2022-11-19T03:37:17.405Z,101639.56
2022-11-19T03:39:48.829Z,101814.81
2022-11-19T03:42:20.177Z,101813.28
2022-11-19T03:44:51.839Z,101804.63
2022-11-19T03:47:23.917Z,101803.84
2022-11-19T03:49:58.991Z,101773.94
2022-11-19T03:52:27.029Z,101797.78
2022-11-19T03:54:54.864Z,101813.28
2022-11-19T03:57:26.215Z,101802.97
2022-11-19T03:59:54.158Z,101809.91
2022-11-19T04:02:22.383Z,101796.00
2022-11-19T04:04:50.228Z,101809.03
2022-11-19T04:07:22.018Z,101808.13
2022-11-19T04:09:50.249Z,101804.00
2022-11-19T04:12:20.313Z,101804.75
2022-11-19T04:14:48.550Z,101803.84
2022-11-19T04:17:17.381Z,101809.91
2022-11-19T04:19:45.562Z,101806.56
2022-11-19T04:22:13.578Z,101803.22
2022-11-19T04:24:42.854Z,101805.00
2022-11-19T04:27:10.798Z,101793.78
2022-11-19T04:29:38.794Z,101804.25
2022-11-19T04:32:07.068Z,101758.34
2022-11-19T04:34:34.920Z,101794.94
2022-11-19T04:37:02.781Z,101798.44
2022-11-19T04:39:30.605Z,101757.81
2022-11-19T04:41:59.946Z,101794.03
2022-11-19T04:44:27.912Z,101791.34
2022-11-19T04:46:55.743Z,101794.03
2022-11-19T04:49:23.734Z,101797.53
2022-11-19T04:51:51.641Z,101780.50
2022-11-19T04:54:19.477Z,101778.56
2022-11-19T04:56:47.416Z,101787.22
2022-11-19T04:59:16.933Z,101771.59
2022-11-19T05:01:44.923Z,101782.81
2022-11-19T05:04:14.571Z,101778.56
2022-11-19T05:06:42.578Z,101797.53
2022-11-19T05:09:10.464Z,101781.28
2022-11-19T05:11:38.410Z,101783.06
2022-11-19T05:14:06.489Z,101766.81
2022-11-19T05:16:35.683Z,101781.28
2022-11-19T05:19:03.834Z,101792.38
2022-11-19T05:21:31.719Z,101792.38
2022-11-19T05:23:59.531Z,101799.22
2022-11-19T05:26:27.430Z,101800.88
2022-11-19T05:28:55.368Z,101797.41
2022-11-19T05:31:23.160Z,101791.22
2022-11-19T05:33:52.413Z,101789.53
2022-11-19T05:36:20.308Z,101780.09
2022-11-19T05:38:48.096Z,101774.03
2022-11-19T05:41:16.012Z,101757.56
2022-11-19T05:43:43.886Z,101767.09
2022-11-19T05:46:11.699Z,101773.03
2022-11-19T05:48:39.692Z,101760.00
2022-11-19T05:51:08.911Z,101764.13
2022-11-19T05:53:36.724Z,101761.41
2022-11-19T05:56:04.832Z,101752.78
2022-11-19T05:58:32.757Z,101775.63
2022-11-19T06:01:00.751Z,101775.63
2022-11-19T06:03:28.659Z,101767.63
2022-11-19T06:05:56.553Z,101773.03
2022-11-19T06:08:25.778Z,101777.28
2022-11-19T06:10:53.580Z,101759.91
2022-11-19T06:13:21.849Z,101774.47
2022-11-19T06:15:49.956Z,101728.69
2022-11-19T06:18:17.955Z,101761.56
2022-11-19T06:20:45.919Z,101760.66
2022-11-19T06:23:13.724Z,101766.47
2022-11-19T06:25:42.996Z,101770.72
2022-11-19T06:28:10.892Z,101770.72
2022-11-19T06:30:38.702Z,101770.59
2022-11-19T06:33:06.830Z,101714.53
2022-11-19T06:35:35.005Z,101777.44
2022-11-19T06:38:02.814Z,101785.94
2022-11-19T06:40:30.743Z,101771.25
2022-11-19T06:42:59.971Z,101771.25
2022-11-19T06:45:27.912Z,101776.53
2022-11-19T06:47:55.853Z,101772.28
2022-11-19T06:50:23.694Z,101768.00
2022-11-19T06:52:51.506Z,101770.72
2022-11-19T06:55:19.800Z,101771.50
2022-11-19T06:57:47.773Z,101746.22
2022-11-19T07:00:18.163Z,101763.50
2022-11-19T07:02:46.036Z,101751.50
2022-11-19T07:05:14.203Z,101765.81
2022-11-19T07:07:42.055Z,101744.28
2022-11-19T07:10:11.247Z,101770.97
2022-11-19T07:12:39.329Z,101773.56
2022-11-19T07:15:07.704Z,101768.28
2022-11-19T07:17:37.872Z,101740.81
2022-11-19T07:20:07.051Z,101776.78
2022-11-19T07:22:34.941Z,101776.78
2022-11-19T07:25:02.870Z,101760.81
2022-11-19T07:27:30.795Z,101769.56
2022-11-19T07:29:58.606Z,101767.91
2022-11-19T07:32:27.134Z,101767.00
2022-11-19T07:34:56.453Z,101659.41
2022-11-19T07:37:24.548Z,101763.50
2022-11-19T07:39:52.504Z,101759.25
2022-11-19T07:42:37.697Z,101760.16
2022-11-19T07:45:07.150Z,101742.09
2022-11-19T07:47:35.204Z,101746.88
2022-11-19T07:50:05.791Z,101748.81
2022-11-19T07:52:33.744Z,101733.72
2022-11-19T07:55:01.722Z,101746.22
2022-11-19T07:57:30.576Z,101736.19
2022-11-19T07:59:58.954Z,101742.75
2022-11-19T08:02:26.807Z,101741.84
2022-11-19T08:04:54.632Z,101737.59
2022-11-19T08:07:23.970Z,101741.97
2022-11-19T08:09:51.802Z,101696.09
2022-11-19T08:12:19.829Z,101738.63
2022-11-19T08:14:47.759Z,101733.47
2022-11-19T08:17:32.923Z,101735.25
2022-11-19T08:20:00.847Z,101728.44
2022-11-19T08:22:30.316Z,101722.50
2022-11-19T08:24:58.416Z,101720.16
2022-11-19T08:27:26.441Z,101727.00
2022-11-19T08:29:54.228Z,101720.94
2022-11-19T08:32:22.494Z,101698.53
2022-11-19T08:34:50.532Z,101722.75
2022-11-19T08:37:18.365Z,101725.31
2022-11-19T08:39:47.651Z,101710.63
2022-11-19T08:42:33.144Z,101712.44
2022-11-19T08:45:01.209Z,101703.13
2022-11-19T08:47:29.098Z,101710.88
2022-11-19T08:49:57.741Z,101713.59
2022-11-19T08:52:25.661Z,101706.88
2022-11-19T08:54:55.077Z,101705.31
2022-11-19T08:57:22.917Z,101704.53
2022-11-19T08:59:52.291Z,101699.00
2022-11-19T09:02:20.185Z,101700.28
2022-11-19T09:04:48.017Z,101705.69
2022-11-19T09:07:16.070Z,101707.75
2022-11-19T09:09:44.064Z,101691.63
2022-11-19T09:12:13.239Z,101690.72
2022-11-19T09:14:41.181Z,101694.31
2022-11-19T09:17:09.053Z,101697.03
2022-11-19T09:19:36.856Z,101676.53
2022-11-19T09:22:04.756Z,101680.66
2022-11-19T09:24:32.646Z,101661.31
2022-11-19T09:27:02.376Z,101675.72
2022-11-19T09:29:31.923Z,101694.03
2022-11-19T09:31:59.929Z,101671.84
2022-11-19T09:34:27.771Z,101678.94
2022-11-19T09:36:55.659Z,101671.31
2022-11-19T09:39:23.556Z,101674.78
2022-11-19T09:41:56.977Z,101661.00
2022-11-19T09:44:42.929Z,101648.75
2022-11-19T09:47:27.266Z,101645.13
2022-11-19T09:50:04.697Z,101645.38
2022-11-19T09:52:34.523Z,101647.44
2022-11-19T09:55:03.583Z,101640.06
2022-11-19T09:57:37.495Z,101637.47
2022-11-19T10:00:10.164Z,101655.25
2022-11-19T10:02:38.217Z,101631.91
2022-11-19T10:05:11.071Z,101632.56
2022-11-19T10:07:51.726Z,101627.03
2022-11-19T10:10:33.983Z,101627.16
2022-11-19T10:13:28.401Z,101615.69
2022-11-19T10:16:07.178Z,101625.34
2022-11-19T10:18:45.113Z,101623.53
2022-11-19T10:21:19.578Z,101620.72
2022-11-19T10:23:55.317Z,101626.66
2022-11-19T10:26:33.397Z,101606.19
2022-11-19T10:29:03.246Z,101625.50
2022-11-19T10:31:38.061Z,101612.47
2022-11-19T10:34:12.885Z,101615.06
2022-11-19T10:36:44.426Z,101610.16
2022-11-19T10:39:21.868Z,101595.81
2022-11-19T10:41:56.480Z,101606.38
2022-11-19T10:44:38.384Z,101603.00
2022-11-19T10:47:10.456Z,101562.97
2022-11-19T10:49:41.172Z,101589.09
2022-11-19T10:52:26.477Z,101591.91
2022-11-19T10:54:57.957Z,101592.56
2022-11-19T10:57:27.002Z,101591.00
2022-11-19T10:59:55.878Z,101572.56
2022-11-19T11:02:33.009Z,101582.38
2022-11-19T11:05:07.810Z,101573.72
2022-11-19T11:07:51.410Z,101572.94
2022-11-19T11:10:35.109Z,101571.50
2022-11-19T11:13:48.155Z,101519.09
2022-11-19T11:16:19.587Z,101562.78
2022-11-19T11:18:49.995Z,101564.59
2022-11-19T11:21:34.648Z,101560.34
2022-11-19T11:24:04.692Z,101558.66
2022-11-19T11:26:35.040Z,101545.75
2022-11-19T11:29:05.391Z,101533.91
2022-11-19T11:31:39.444Z,101531.47
2022-11-19T11:34:15.864Z,101537.63
2022-11-19T11:36:45.383Z,101550.44
2022-11-19T11:39:27.496Z,101533.13
2022-11-19T11:42:16.086Z,101534.69
2022-11-19T11:44:52.276Z,101543.47
2022-11-19T11:47:24.044Z,101528.28
2022-11-19T11:50:04.948Z,101529.06
2022-11-19T11:52:37.171Z,101540.88
2022-11-19T11:55:07.443Z,101541.53
2022-11-19T11:57:36.775Z,101542.31
2022-11-19T12:00:36.209Z,101536.25
2022-11-19T12:03:07.161Z,101544.66
2022-11-19T12:05:50.382Z,101542.63
2022-11-19T12:08:44.160Z,101550.00
2022-11-19T12:11:21.668Z,101534.03
2022-11-19T12:13:57.839Z,101530.75
2022-11-19T12:16:49.156Z,101537.94
2022-11-19T12:19:28.599Z,101540.66
2022-11-19T12:22:07.973Z,101544.66
2022-11-19T12:24:50.660Z,101552.69
2022-11-19T12:27:28.350Z,101541.41
2022-11-19T12:30:06.147Z,101544.63
2022-11-19T12:33:01.171Z,101512.63
2022-11-19T12:35:44.792Z,101551.28
2022-11-19T12:38:36.441Z,101552.56
2022-11-19T12:41:27.744Z,101547.16
2022-11-19T12:43:59.112Z,101546.56
2022-11-19T12:46:42.908Z,101554.16
2022-11-19T12:49:26.536Z,101526.94
2022-11-19T12:52:04.408Z,101550.22
2022-11-19T12:54:47.209Z,101557.06
2022-11-19T12:57:34.609Z,101551.13
2022-11-19T13:00:12.238Z,101555.50
2022-11-19T13:02:49.687Z,101547.00
2022-11-19T13:05:20.879Z,101541.84
2022-11-19T13:07:55.453Z,101520.47
2022-11-19T13:10:27.320Z,101536.03
2022-11-19T13:12:59.364Z,101535.13
2022-11-19T13:15:31.548Z,101538.69
2022-11-19T13:18:04.076Z,101538.69
2022-11-19T13:20:42.834Z,101302.91
2022-11-19T13:23:17.357Z,101539.38
2022-11-19T13:25:49.885Z,101541.06
2022-11-19T13:28:23.648Z,101538.47
2022-11-19T13:30:54.490Z,101525.63
2022-11-19T13:33:27.550Z,101560.91
2022-11-19T13:36:03.656Z,101547.78
2022-11-19T13:38:43.805Z,101550.47
2022-11-19T13:41:17.586Z,101526.94
2022-11-19T13:44:03.461Z,101555.75
2022-11-19T13:46:36.794Z,101417.31
2022-11-19T13:49:08.647Z,101561.00
2022-11-19T13:51:40.777Z,101558.84
2022-11-19T13:54:10.076Z,101567.38
2022-11-19T13:56:46.883Z,101569.75
2022-11-19T13:59:40.561Z,101561.38
2022-11-19T14:02:57.483Z,101558.25
2022-11-19T14:05:52.825Z,101557.72
2022-11-19T14:08:52.674Z,101419.59
2022-11-19T14:11:34.449Z,101553.72
2022-11-19T14:14:40.107Z,101553.06
2022-11-19T14:17:35.792Z,101555.91
2022-11-19T14:20:21.435Z,101563.75
2022-11-19T14:23:14.220Z,101563.09
2022-11-19T14:26:02.235Z,101562.44
2022-11-19T14:28:48.537Z,101567.06
2022-11-19T14:31:19.539Z,101564.38
2022-11-19T14:34:04.387Z,101567.44
2022-11-19T14:36:47.647Z,101561.25
2022-11-19T14:39:24.848Z,101571.16
2022-11-19T14:42:14.715Z,101565.00
2022-11-19T14:44:43.478Z,101565.09
2022-11-19T14:47:35.065Z,101578.50
2022-11-19T14:50:06.351Z,101578.50
2022-11-19T14:52:36.593Z,101578.38
2022-11-19T14:55:07.764Z,101588.41
2022-11-19T14:57:38.796Z,101590.22
2022-11-19T15:00:26.382Z,101591.22
2022-11-19T15:02:57.109Z,101580.53
2022-11-19T15:05:31.672Z,101592.25
2022-11-19T15:08:31.017Z,101588.91
2022-11-19T15:11:07.455Z,101592.50
2022-11-19T15:13:36.411Z,101468.13
2022-11-19T15:16:10.268Z,101597.53
2022-11-19T15:19:12.771Z,101601.00
2022-11-19T15:22:13.380Z,101604.38
2022-11-19T15:24:58.999Z,101599.88
2022-11-19T15:27:40.631Z,101600.91
2022-11-19T15:30:16.229Z,101599.88
2022-11-19T15:33:03.449Z,101602.34
2022-11-19T15:36:02.457Z,101603.88
2022-11-19T15:38:36.944Z,101618.47
2022-11-19T15:41:07.147Z,101612.28
2022-11-19T15:43:41.485Z,101592.22
2022-11-19T15:46:13.665Z,101612.81
2022-11-19T15:48:55.875Z,101616.19
2022-11-19T15:51:25.553Z,101608.72
2022-11-19T15:54:01.795Z,101615.28
2022-11-19T15:56:33.029Z,101611.00
2022-11-19T15:59:05.588Z,101612.56
2022-11-19T16:01:34.490Z,101615.94
2022-11-19T16:04:07.697Z,101598.44
2022-11-19T16:06:40.150Z,101633.84
2022-11-19T16:09:08.842Z,101631.28
2022-11-19T16:11:56.470Z,101628.69
2022-11-19T16:14:44.041Z,101630.25
2022-11-19T16:17:31.301Z,101615.84
2022-11-19T16:20:06.955Z,101633.97
2022-11-19T16:22:40.451Z,101639.78
2022-11-19T16:25:13.004Z,101633.78
2022-11-19T16:27:43.288Z,101645.88
2022-11-19T16:30:19.759Z,101643.06
2022-11-19T16:32:48.730Z,101652.59
2022-11-19T16:35:24.622Z,101655.19
2022-11-19T16:37:55.863Z,101657.09
2022-11-19T16:40:24.640Z,101668.31
2022-11-19T16:42:55.058Z,101655.31
2022-11-19T16:45:25.588Z,101658.00
2022-11-19T16:47:55.660Z,101613.72
2022-11-19T16:50:32.814Z,101655.44
2022-11-19T16:53:03.410Z,101635.59
2022-11-19T16:55:43.948Z,101656.34
2022-11-19T16:58:17.416Z,101658.50
2022-11-19T17:00:49.484Z,101644.75
2022-11-19T17:03:24.587Z,101668.06
2022-11-19T17:05:54.584Z,101668.81
2022-11-19T17:08:25.830Z,101661.50
2022-11-19T17:11:36.140Z,101667.03
2022-11-19T17:14:24.338Z,101674.38
2022-11-19T17:16:54.230Z,101671.69
2022-11-19T17:19:26.896Z,101674.25
2022-11-19T17:21:59.071Z,101653.66
2022-11-19T17:24:32.806Z,101678.66
2022-11-19T17:27:01.288Z,101679.41
2022-11-19T17:29:29.331Z,101675.81
2022-11-19T17:31:58.176Z,101676.72
2022-11-19T17:34:33.316Z,101685.34
2022-11-19T17:37:01.601Z,101673.75
2022-11-19T17:39:30.871Z,101671.69
2022-11-19T17:42:16.630Z,101688.97
2022-11-19T17:44:44.837Z,101687.41
2022-11-19T17:47:22.190Z,101685.59
2022-11-19T17:49:51.216Z,101687.41
2022-11-19T17:52:24.069Z,101658.56
2022-11-19T17:54:56.923Z,101686.75
2022-11-19T17:57:25.101Z,101690.13
2022-11-19T17:59:53.356Z,101693.97
2022-11-19T18:02:22.468Z,101679.53
2022-11-19T18:04:50.555Z,101699.38
2022-11-19T18:07:18.549Z,101694.22
2022-11-19T18:09:46.705Z,101696.16
2022-11-19T18:12:17.976Z,101698.97
2022-11-19T18:14:46.681Z,101691.00
2022-11-19T18:17:16.346Z,101690.47
2022-11-19T18:19:44.201Z,101693.19
2022-11-19T18:22:18.317Z,101694.97
2022-11-19T18:24:47.871Z,101690.72
2022-11-19T18:27:17.429Z,101665.97
2022-11-19T18:29:45.418Z,101685.56
2022-11-19T18:32:15.972Z,101688.13
2022-11-19T18:34:44.401Z,101694.97
2022-11-19T18:37:12.891Z,101617.56
2022-11-19T18:39:40.687Z,101689.69
2022-11-19T18:42:11.104Z,101692.16
2022-11-19T18:44:41.779Z,101691.25
2022-11-19T18:47:11.087Z,101688.66
2022-11-19T18:49:39.292Z,101700.78
2022-11-19T18:52:09.299Z,101704.41
2022-11-19T18:54:37.228Z,101712.25
2022-11-19T18:57:05.407Z,101687.00
2022-11-19T18:59:33.465Z,101710.72
2022-11-19T19:02:02.811Z,101708.91
2022-11-19T19:04:30.708Z,101713.41
2022-11-19T19:06:59.467Z,101710.06
2022-11-19T19:09:27.498Z,101707.59
2022-11-19T19:12:14.135Z,101696.91
2022-11-19T19:14:42.438Z,101713.78
2022-11-19T19:17:11.990Z,101657.75
2022-11-19T19:19:40.332Z,101720.63
2022-11-19T19:22:08.825Z,101685.09
2022-11-19T19:24:36.770Z,101715.47
2022-11-19T19:27:05.588Z,101717.28
2022-11-19T19:29:33.621Z,101714.81
2022-11-19T19:32:01.813Z,101698.47
2022-11-19T19:34:31.594Z,101720.88
2022-11-19T19:36:59.519Z,101713.25
2022-11-19T19:39:27.325Z,101709.00
2022-11-19T19:41:55.469Z,101701.25
2022-11-19T19:44:23.421Z,101699.97
2022-11-19T19:46:51.204Z,101698.69
2022-11-19T19:49:19.839Z,101681.41
2022-11-19T19:51:49.685Z,101700.22
2022-11-19T19:54:17.621Z,101699.97
2022-11-19T19:56:45.754Z,101693.78
2022-11-19T19:59:14.728Z,101651.16
2022-11-19T20:01:47.667Z,101695.09
2022-11-19T20:04:15.704Z,101628.91
2022-11-19T20:06:46.977Z,101683.38
2022-11-19T20:09:16.497Z,101698.47
2022-11-19T20:11:44.463Z,101697.69
2022-11-19T20:14:12.488Z,101694.31
2022-11-19T20:16:41.863Z,101686.09
2022-11-19T20:19:13.134Z,101691.75
2022-11-19T20:21:41.188Z,101691.88
2022-11-19T20:24:12.811Z,101669.31
2022-11-19T20:26:43.346Z,101689.03
2022-11-19T20:29:12.670Z,101685.31
2022-11-19T20:31:41.166Z,101701.28
2022-11-19T20:34:09.084Z,101703.88
2022-11-19T20:36:37.327Z,101702.31
2022-11-19T20:39:06.550Z,101705.03
2022-11-19T20:41:52.242Z,101698.19
2022-11-19T20:44:22.775Z,101655.44
2022-11-19T20:46:52.772Z,101704.38
2022-11-19T20:49:22.727Z,101704.38
2022-11-19T20:51:51.450Z,101704.38
2022-11-19T20:54:20.064Z,101702.31
2022-11-19T20:56:49.224Z,101693.53
2022-11-19T20:59:17.503Z,101697.03
2022-11-19T21:01:48.539Z,101697.03
2022-11-19T21:04:16.695Z,101702.06
2022-11-19T21:06:44.529Z,101693.41
2022-11-19T21:09:12.448Z,101678.47
2022-11-19T21:11:40.413Z,101687.34
2022-11-19T21:14:08.568Z,101682.31
2022-11-19T21:16:36.803Z,101685.81
2022-11-19T21:19:06.286Z,101682.31
2022-11-19T21:21:34.679Z,101681.41
2022-11-19T21:24:02.669Z,101681.41
2022-11-19T21:26:30.912Z,101681.28
2022-11-19T21:29:00.032Z,101679.50
2022-11-19T21:31:38.825Z,101669.94
2022-11-19T21:34:10.236Z,101669.06
2022-11-19T21:36:38.926Z,101657.97
2022-11-19T21:39:08.239Z,101655.91
2022-11-19T21:41:36.411Z,101650.75
2022-11-19T21:44:05.625Z,101656.69
2022-11-19T21:46:33.957Z,101641.22
2022-11-19T21:49:01.994Z,101657.97
2022-11-19T21:51:31.501Z,101653.59
2022-11-19T21:53:59.918Z,101665.84
2022-11-19T21:56:32.494Z,101660.56
2022-11-19T21:59:05.280Z,101657.09
2022-11-19T22:01:33.089Z,101653.47
2022-11-19T22:04:00.925Z,101660.31
2022-11-19T22:06:29.062Z,101660.19
2022-11-19T22:08:58.295Z,101653.22
2022-11-19T22:11:32.534Z,101657.34
2022-11-19T22:14:02.660Z,101659.81
2022-11-19T22:16:31.484Z,101659.69
2022-11-19T22:18:59.478Z,101653.50
2022-11-19T22:21:29.109Z,101652.59
2022-11-19T22:23:58.868Z,101626.72
2022-11-19T22:26:27.001Z,101643.84
2022-11-19T22:28:55.040Z,101635.06
2022-11-19T22:31:23.137Z,101638.44
2022-11-19T22:33:52.372Z,101632.50
2022-11-19T22:36:22.032Z,101629.91
2022-11-19T22:38:50.200Z,101623.97
2022-11-19T22:41:21.022Z,101625.78
2022-11-19T22:43:49.344Z,101617.25
2022-11-19T22:46:17.429Z,101617.25
2022-11-19T22:48:45.498Z,101605.16
2022-11-19T22:51:15.661Z,101614.81
2022-11-19T22:53:44.354Z,101608.88
2022-11-19T22:56:14.437Z,101604.63
2022-11-19T22:58:44.066Z,101606.41
2022-11-19T23:01:18.051Z,101602.16
2022-11-19T23:03:46.490Z,101600.59
2022-11-19T23:06:14.823Z,101533.97
2022-11-19T23:08:43.012Z,101588.63
2022-11-19T23:11:11.793Z,101589.75
2022-11-19T23:13:41.601Z,101583.81
2022-11-19T23:16:12.232Z,101588.19
2022-11-19T23:18:41.662Z,101566.06
2022-11-19T23:21:11.727Z,101581.50
2022-11-19T23:23:39.783Z,101571.28
2022-11-19T23:26:09.356Z,101564.63
2022-11-19T23:28:38.464Z,101577.34
2022-11-19T23:31:07.884Z,101573.09
2022-11-19T23:33:37.687Z,101565.47
2022-11-19T23:36:09.161Z,101575.03
2022-11-19T23:38:37.375Z,101571.66
2022-11-19T23:41:06.697Z,101568.06
2022-11-19T23:43:35.653Z,101555.81
2022-11-19T23:46:09.131Z,101558.63
2022-11-19T23:48:39.763Z,101547.84
2022-11-19T23:51:11.638Z,101550.66
2022-11-19T23:53:40.227Z,101499.44
2022-11-19T23:56:09.425Z,101541.88
2022-11-19T23:58:38.103Z,101546.03
